createdAt,value
2022-08-08T00:01:08.582Z,59.10
2022-08-08T00:04:49.121Z,59.30
2022-08-08T00:08:24.426Z,59.30
2022-08-08T00:12:07.766Z,59.30
2022-08-08T00:15:56.978Z,59.30
2022-08-08T00:19:31.066Z,59.40
2022-08-08T00:23:06.231Z,59.40
2022-08-08T00:26:37.645Z,59.40
2022-08-08T00:30:07.770Z,59.40
2022-08-08T00:34:18.497Z,59.50
2022-08-08T00:38:01.350Z,59.40
2022-08-08T00:42:08.287Z,59.50
2022-08-08T00:46:02.205Z,59.50
2022-08-08T00:50:16.468Z,59.60
2022-08-08T00:54:15.420Z,59.60
2022-08-08T00:58:31.796Z,59.70
2022-08-08T01:03:57.291Z,59.70
2022-08-08T01:06:44.396Z,59.70
2022-08-08T01:10:59.730Z,59.80
2022-08-08T01:15:06.892Z,59.90
2022-08-08T01:19:13.541Z,59.90
2022-08-08T01:23:07.285Z,60.10
2022-08-08T01:27:32.966Z,60.30
2022-08-08T01:32:06.751Z,60.20
2022-08-08T01:36:10.212Z,60.30
2022-08-08T01:40:03.006Z,60.30
2022-08-08T01:43:39.127Z,60.30
2022-08-08T01:48:14.771Z,60.30
2022-08-08T01:52:28.086Z,60.40
2022-08-08T01:56:28.392Z,60.50
2022-08-08T02:00:01.761Z,60.50
2022-08-08T02:04:15.065Z,60.50
2022-08-08T02:08:06.961Z,60.60
2022-08-08T02:11:58.857Z,60.80
2022-08-08T02:15:40.715Z,60.80
2022-08-08T02:19:26.950Z,60.80
2022-08-08T02:23:18.445Z,60.90
2022-08-08T02:26:52.338Z,61.00
2022-08-08T02:30:32.934Z,61.10
2022-08-08T02:34:15.113Z,61.10
2022-08-08T02:38:30.232Z,61.30
2022-08-08T02:42:47.526Z,61.30
2022-08-08T02:46:50.657Z,61.50
2022-08-08T02:51:07.101Z,61.60
2022-08-08T02:55:03.939Z,61.70
2022-08-08T02:59:57.498Z,61.70
2022-08-08T03:05:03.296Z,61.90
2022-08-08T03:08:40.864Z,62.10
2022-08-08T03:13:02.247Z,62.10
2022-08-08T03:16:43.813Z,62.20
2022-08-08T03:20:16.084Z,62.30
2022-08-08T03:23:57.540Z,62.40
2022-08-08T03:27:35.840Z,62.50
2022-08-08T03:31:24.876Z,62.50
2022-08-08T03:34:55.549Z,62.60
2022-08-08T03:38:56.191Z,62.70
2022-08-08T03:42:30.319Z,62.70
2022-08-08T03:46:07.443Z,62.90
2022-08-08T03:50:00.689Z,62.90
2022-08-08T03:53:42.399Z,63.00
2022-08-08T03:58:29.878Z,63.10
2022-08-08T04:01:23.080Z,63.20
2022-08-08T04:04:56.406Z,63.30
2022-08-08T04:08:33.258Z,63.40
2022-08-08T04:12:03.694Z,63.50
2022-08-08T04:15:54.798Z,64.50
2022-08-08T04:19:25.894Z,63.60
2022-08-08T04:22:59.319Z,63.70
2022-08-08T04:26:40.027Z,63.80
2022-08-08T04:30:17.791Z,63.90
2022-08-08T04:33:47.079Z,64.10
2022-08-08T04:37:13.849Z,64.00
2022-08-08T04:40:51.726Z,64.10
2022-08-08T04:44:20.686Z,64.20
2022-08-08T04:47:47.186Z,64.20
2022-08-08T04:51:27.950Z,64.30
2022-08-08T04:55:04.531Z,64.40
2022-08-08T04:58:33.176Z,64.40
2022-08-08T05:01:59.490Z,64.40
2022-08-08T05:05:44.653Z,64.60
2022-08-08T05:09:23.394Z,64.50
2022-08-08T05:13:00.233Z,64.40
2022-08-08T05:16:52.613Z,64.60
2022-08-08T05:20:40.410Z,64.50
2022-08-08T05:24:22.774Z,64.20
2022-08-08T05:27:54.759Z,64.10
2022-08-08T05:32:05.410Z,63.80
2022-08-08T05:35:14.594Z,63.40
2022-08-08T05:38:49.202Z,63.10
2022-08-08T05:42:20.464Z,63.00
2022-08-08T05:45:53.104Z,63.50
2022-08-08T05:49:22.260Z,63.30
2022-08-08T05:52:56.965Z,63.20
2022-08-08T05:56:47.140Z,63.20
2022-08-08T06:00:25.286Z,63.00
2022-08-08T06:04:08.468Z,63.80
2022-08-08T06:07:52.061Z,62.60
2022-08-08T06:11:40.871Z,62.50
2022-08-08T06:15:16.307Z,62.40
2022-08-08T06:18:47.547Z,62.10
2022-08-08T06:22:35.445Z,62.00
2022-08-08T06:26:38.268Z,61.80
2022-08-08T06:30:07.395Z,61.90
2022-08-08T06:34:25.528Z,61.70
2022-08-08T06:37:55.787Z,61.20
2022-08-08T06:41:32.370Z,61.30
2022-08-08T06:45:01.533Z,60.10
2022-08-08T06:48:40.226Z,58.80
2022-08-08T06:52:15.909Z,57.40
2022-08-08T06:55:47.353Z,55.40
2022-08-08T07:08:04.516Z,49.30
2022-08-08T07:11:50.888Z,47.50
2022-08-08T07:15:32.775Z,46.20
2022-08-08T07:19:11.418Z,45.30
2022-08-08T07:22:59.338Z,44.70
2022-08-08T07:26:28.911Z,43.90
2022-08-08T07:30:05.752Z,42.60
2022-08-08T07:33:53.776Z,41.60
2022-08-08T07:37:24.113Z,40.70
2022-08-08T07:40:50.411Z,39.70
2022-08-08T07:44:37.506Z,39.10
2022-08-08T07:48:05.237Z,38.60
2022-08-08T07:51:53.459Z,37.90
2022-08-08T07:55:28.800Z,37.40
2022-08-08T07:58:56.916Z,37.00
2022-08-08T08:02:34.684Z,36.60
2022-08-08T08:06:04.090Z,36.20
2022-08-08T08:09:40.249Z,35.80
2022-08-08T08:13:25.856Z,35.60
2022-08-08T08:17:10.348Z,35.30
2022-08-08T08:20:41.420Z,35.00
2022-08-08T08:24:06.731Z,34.90
2022-08-08T08:27:35.140Z,34.90
2022-08-08T08:31:04.709Z,34.80
2022-08-08T08:34:32.573Z,35.50
2022-08-08T08:38:17.408Z,34.90
2022-08-08T08:41:48.656Z,35.20
2022-08-08T08:45:22.713Z,35.40
2022-08-08T08:48:52.366Z,36.40
2022-08-08T08:52:20.773Z,38.30
2022-08-08T08:55:49.456Z,40.10
2022-08-08T08:59:15.414Z,41.80
2022-08-08T09:02:52.824Z,43.20
2022-08-08T09:06:26.849Z,44.50
2022-08-08T09:09:58.265Z,45.60
2022-08-08T09:13:34.271Z,46.60
2022-08-08T09:17:09.801Z,47.40
2022-08-08T09:21:57.640Z,47.80
2022-08-08T09:24:24.850Z,48.30
2022-08-08T09:27:58.511Z,48.90
2022-08-08T09:44:18.970Z,50.50
2022-08-08T09:48:17.731Z,50.90
2022-08-08T09:56:12.508Z,51.10
2022-08-08T10:00:28.908Z,51.50
2022-08-08T10:03:41.672Z,51.70
2022-08-08T10:07:08.988Z,51.80
2022-08-08T10:10:41.680Z,51.90
2022-08-08T10:14:35.562Z,52.00
2022-08-08T10:18:25.863Z,52.10
2022-08-08T10:22:01.068Z,52.10
2022-08-08T10:25:56.130Z,52.20
2022-08-08T11:27:48.975Z,51.10
2022-08-08T11:40:12.910Z,50.60
2022-08-08T11:44:06.841Z,50.50
2022-08-08T12:03:37.155Z,50.80
2022-08-08T12:07:08.059Z,50.70
2022-08-08T12:31:53.739Z,51.10
2022-08-08T12:40:00.077Z,50.90
2022-08-08T12:51:58.657Z,51.00
2022-08-08T12:56:19.153Z,51.00
2022-08-08T13:40:41.088Z,51.40
2022-08-08T14:29:40.189Z,52.40
2022-08-08T14:41:55.212Z,52.40
2022-08-08T15:57:02.501Z,54.30
2022-08-08T16:13:07.455Z,54.50
2022-08-08T16:19:01.248Z,54.70
2022-08-08T16:55:00.527Z,55.10
2022-08-08T17:14:00.730Z,55.50
2022-08-08T17:22:39.138Z,55.40
2022-08-08T17:30:46.688Z,55.70
2022-08-08T17:34:54.770Z,55.90
2022-08-08T17:38:51.443Z,55.80
2022-08-08T17:42:36.549Z,56.00
2022-08-08T17:50:29.217Z,56.20
2022-08-08T17:54:38.599Z,56.20
2022-08-08T17:58:21.582Z,56.30
2022-08-08T18:02:04.361Z,56.40
2022-08-08T18:05:49.771Z,56.50
2022-08-08T18:09:25.066Z,56.60
2022-08-08T18:13:09.015Z,56.50
2022-08-08T18:16:52.633Z,57.10
2022-08-08T18:20:54.589Z,56.50
2022-08-08T18:24:37.475Z,56.60
2022-08-08T18:28:16.493Z,56.80
2022-08-08T18:31:54.767Z,56.60
2022-08-08T18:35:34.211Z,56.90
2022-08-08T18:39:16.598Z,57.00
2022-08-08T18:43:01.714Z,57.10
2022-08-08T18:46:59.485Z,57.10
2022-08-08T18:50:39.702Z,57.30
2022-08-08T18:54:29.776Z,56.90
2022-08-08T18:58:06.727Z,56.90
2022-08-08T19:02:28.816Z,57.00
2022-08-08T19:05:45.101Z,57.00
2022-08-08T19:09:14.923Z,57.00
2022-08-08T19:12:44.781Z,57.00
2022-08-08T19:16:23.453Z,57.50
2022-08-08T19:20:02.757Z,57.60
2022-08-08T19:23:35.506Z,57.70
2022-08-08T19:27:06.113Z,57.70
2022-08-08T19:30:38.903Z,57.60
2022-08-08T19:34:36.660Z,57.60
2022-08-08T19:38:07.104Z,57.70
2022-08-08T19:41:42.400Z,57.80
2022-08-08T19:45:10.275Z,58.10
2022-08-08T19:48:39.791Z,58.30
2022-08-08T19:52:10.480Z,58.40
2022-08-08T19:55:40.720Z,58.40
2022-08-08T19:59:22.361Z,58.60
2022-08-08T20:02:50.555Z,58.80
2022-08-08T20:06:20.635Z,59.10
2022-08-08T20:09:57.135Z,59.20
2022-08-08T20:14:13.310Z,59.40
2022-08-08T20:17:27.838Z,59.50
2022-08-08T20:21:02.349Z,59.70
2022-08-08T20:24:31.302Z,60.00
2022-08-08T20:28:07.230Z,60.20
2022-08-08T20:32:07.927Z,60.60
2022-08-08T20:35:58.982Z,60.80
2022-08-08T20:39:39.559Z,61.20
2022-08-08T20:43:23.197Z,61.10
2022-08-08T20:47:02.966Z,61.40
2022-08-08T20:50:34.349Z,61.60
2022-08-08T20:54:14.044Z,61.90
2022-08-08T20:57:47.782Z,62.10
2022-08-08T21:01:20.003Z,62.30
2022-08-08T21:04:50.207Z,62.70
2022-08-08T21:08:35.192Z,63.00
2022-08-08T21:12:07.348Z,63.20
2022-08-08T21:16:05.777Z,63.50
2022-08-08T21:19:22.834Z,63.50
2022-08-08T21:22:50.740Z,63.00
2022-08-08T21:26:27.283Z,63.10
2022-08-08T21:30:05.711Z,62.90
2022-08-08T21:33:42.399Z,63.00
2022-08-08T21:37:11.511Z,63.00
2022-08-08T21:40:54.807Z,63.00
2022-08-08T21:44:21.188Z,63.20
2022-08-08T21:48:05.363Z,63.30
2022-08-08T21:54:17.954Z,63.40
2022-08-08T21:55:23.942Z,63.40
2022-08-08T21:59:05.730Z,63.60
2022-08-08T22:02:34.889Z,63.60
2022-08-08T22:06:02.368Z,63.90
2022-08-08T22:09:40.954Z,63.90
2022-08-08T22:13:18.565Z,63.90
2022-08-08T22:16:44.045Z,64.00
2022-08-08T22:20:18.895Z,64.10
2022-08-08T22:23:52.264Z,64.10
2022-08-08T22:27:38.624Z,64.20
2022-08-08T22:31:04.864Z,64.30
2022-08-08T22:34:39.909Z,64.50
2022-08-08T22:38:04.524Z,64.30
2022-08-08T22:41:30.540Z,64.50
2022-08-08T22:44:56.851Z,64.30
2022-08-08T22:48:22.472Z,64.50
2022-08-08T22:51:49.976Z,64.40
2022-08-08T22:55:19.109Z,64.50
2022-08-08T22:58:51.255Z,64.50
2022-08-08T23:02:19.641Z,64.70
2022-08-08T23:05:49.921Z,64.70
2022-08-08T23:09:15.043Z,64.90
2022-08-08T23:12:41.545Z,65.00
2022-08-08T23:16:37.578Z,65.10
2022-08-08T23:19:54.046Z,65.30
2022-08-08T23:23:18.476Z,65.50
2022-08-08T23:26:43.112Z,65.60
2022-08-08T23:30:17.757Z,66.00
2022-08-08T23:34:16.611Z,65.90
2022-08-08T23:38:02.072Z,66.10
2022-08-08T23:41:24.529Z,66.20
2022-08-08T23:44:49.365Z,66.10
2022-08-08T23:49:02.870Z,66.30
2022-08-08T23:52:05.175Z,66.70
2022-08-08T23:55:32.017Z,66.70
2022-08-08T23:58:56.209Z,66.90
